Time;durP1;ratioP1;P1;durP2;ratioP2;P2;SDS_P1;SDS_P2;PMS_P1;PMS_P2;Temp;Humidity;BMP_temperature;BMP_pressure;BME280_temperature;BME280_humidity;BME280_pressure;Samples;Min_cycle;Max_cycle;Signal;HPM_P1;HPM_P2
2023/05/02 00:00:14;;;;;;;30.25;16.17;;;;;;;;;;5035967;28;20037;-66
2023/05/02 00:02:40;;;;;;;30.50;15.98;;;;;;;;;;5033399;28;20042;-66
2023/05/02 00:05:06;;;;;;;34.70;16.75;;;;;;;;;;5031384;28;20044;-66
2023/05/02 00:07:32;;;;;;;32.00;16.48;;;;;;;;;;5028537;28;20042;-66
2023/05/02 00:10:01;;;;;;;30.15;16.52;;;;;;;;;;5026561;28;20051;-66
2023/05/02 00:12:27;;;;;;;30.55;16.02;;;;;;;;;;5013624;28;20499;-66
2023/05/02 00:14:53;;;;;;;30.25;16.02;;;;;;;;;;5031327;28;20376;-66
2023/05/02 00:17:19;;;;;;;30.15;16.40;;;;;;;;;;5038697;28;20043;-66
2023/05/02 00:19:46;;;;;;;30.67;16.15;;;;;;;;;;5036965;28;20121;-66
2023/05/02 00:22:12;;;;;;;27.17;15.65;;;;;;;;;;5011966;28;20384;-66
2023/05/02 00:24:38;;;;;;;26.15;14.98;;;;;;;;;;5014699;28;20083;-66
2023/05/02 00:27:05;;;;;;;28.92;14.82;;;;;;;;;;5020461;28;20381;-66
2023/05/02 00:29:31;;;;;;;32.55;15.63;;;;;;;;;;5022629;28;20044;-66
2023/05/02 00:31:57;;;;;;;25.80;13.32;;;;;;;;;;5032174;28;20037;-66
2023/05/02 00:34:23;;;;;;;22.63;11.48;;;;;;;;;;5030873;28;20536;-66
2023/05/02 00:36:49;;;;;;;23.27;11.07;;;;;;;;;;5035888;28;20045;-66
2023/05/02 00:39:15;;;;;;;20.13;10.98;;;;;;;;;;5030599;28;20025;-66
2023/05/02 00:41:42;;;;;;;19.63;10.68;;;;;;;;;;5005416;28;20050;-66
2023/05/02 00:44:07;;;;;;;19.38;10.50;;;;;;;;;;5030667;28;20124;-66
2023/05/02 00:46:34;;;;;;;17.17;9.68;;;;;;;;;;5030102;28;20183;-66
2023/05/02 00:49:00;;;;;;;12.57;6.57;;;;;;;;;;5033517;28;20086;-66
2023/05/02 00:51:27;;;;;;;10.38;5.78;;;;;;;;;;5025937;28;20052;-66
2023/05/02 00:53:53;;;;;;;12.90;5.95;;;;;;;;;;5031210;28;20128;-66
2023/05/02 00:56:20;;;;;;;10.75;5.53;;;;;;;;;;5030599;28;20068;-66
2023/05/02 00:58:46;;;;;;;10.95;5.82;;;;;;;;;;5036652;28;20037;-66
2023/05/02 01:01:24;;;;;;;9.40;5.88;;;;;;;;;;5028938;28;20557;-66
2023/05/02 01:04:01;;;;;;;11.82;4.55;;;;;;;;;;5024369;28;20041;-66
2023/05/02 01:06:27;;;;;;;6.22;3.90;;;;;;;;;;5026125;28;20037;-66
2023/05/02 01:09:16;;;;;;;6.40;3.70;;;;;;;;;;5030363;28;20434;-66
2023/05/02 01:12:04;;;;;;;7.30;3.80;;;;;;;;;;4986726;28;20530;-66
2023/05/02 01:14:35;;;;;;;8.25;4.05;;;;;;;;;;5034416;28;20036;-66
2023/05/02 01:17:07;;;;;;;9.55;4.40;;;;;;;;;;5040021;28;20498;-66
2023/05/02 01:19:37;;;;;;;9.20;4.55;;;;;;;;;;5028528;28;20049;-66
2023/05/02 01:22:05;;;;;;;8.63;4.63;;;;;;;;;;5037327;28;20087;-66
2023/05/02 01:24:46;;;;;;;9.90;4.68;;;;;;;;;;5032683;28;20041;-66
2023/05/02 01:27:34;;;;;;;10.25;5.00;;;;;;;;;;5033113;28;20072;-67
2023/05/02 01:30:01;;;;;;;12.18;5.07;;;;;;;;;;5096514;22;20479;-66
2023/05/02 01:32:29;;;;;;;9.63;5.25;;;;;;;;;;5106395;27;20034;-66
2023/05/02 01:34:56;;;;;;;6.80;3.70;;;;;;;;;;5112512;28;20130;-66
2023/05/02 01:37:23;;;;;;;10.13;3.60;;;;;;;;;;5113550;28;20110;-67
2023/05/02 01:39:50;;;;;;;9.50;3.70;;;;;;;;;;5114701;27;20118;-66
2023/05/02 01:42:17;;;;;;;4.25;2.97;;;;;;;;;;5108622;28;20051;-66
2023/05/02 01:44:44;;;;;;;7.88;3.50;;;;;;;;;;5100190;28;20036;-66
2023/05/02 01:47:11;;;;;;;6.82;2.85;;;;;;;;;;5093133;28;20468;-66
2023/05/02 01:49:38;;;;;;;7.38;3.78;;;;;;;;;;5109983;28;20071;-66
2023/05/02 01:52:09;;;;;;;10.90;3.45;;;;;;;;;;5113806;28;20046;-66
2023/05/02 01:54:36;;;;;;;8.77;3.58;;;;;;;;;;5113281;28;20039;-66
2023/05/02 01:57:04;;;;;;;12.35;3.72;;;;;;;;;;5114376;28;20407;-67
2023/05/02 01:59:31;;;;;;;8.93;3.67;;;;;;;;;;5093296;28;20046;-66
2023/05/02 02:01:59;;;;;;;12.57;3.95;;;;;;;;;;5103780;28;20123;-66
2023/05/02 02:04:25;;;;;;;10.82;4.03;;;;;;;;;;5109021;28;20069;-66
2023/05/02 02:06:54;;;;;;;10.93;4.15;;;;;;;;;;5113488;28;20405;-67
2023/05/02 02:09:20;;;;;;;12.48;4.75;;;;;;;;;;5112627;28;20081;-67
2023/05/02 02:11:48;;;;;;;12.38;4.82;;;;;;;;;;5092625;28;20039;-66
2023/05/02 02:14:35;;;;;;;12.43;5.03;;;;;;;;;;5113171;28;20047;-66
2023/05/02 02:17:03;;;;;;;12.50;4.53;;;;;;;;;;5113604;28;20046;-67
2023/05/02 02:19:30;;;;;;;10.55;4.50;;;;;;;;;;5111453;28;20036;-67
2023/05/02 02:21:57;;;;;;;10.32;4.68;;;;;;;;;;5111328;28;20100;-66
2023/05/02 02:24:23;;;;;;;13.32;4.60;;;;;;;;;;5103611;28;20071;-66
2023/05/02 02:26:50;;;;;;;10.48;4.50;;;;;;;;;;5093494;28;20085;-67
2023/05/02 02:29:16;;;;;;;7.03;4.40;;;;;;;;;;5100504;28;20043;-66
2023/05/02 02:31:42;;;;;;;11.30;4.60;;;;;;;;;;5103886;28;20105;-67
2023/05/02 02:34:08;;;;;;;10.90;4.95;;;;;;;;;;5113643;28;20529;-67
2023/05/02 02:36:45;;;;;;;7.20;4.38;;;;;;;;;;5113078;28;20042;-67
2023/05/02 02:39:20;;;;;;;12.93;4.35;;;;;;;;;;5112814;28;20042;-67
2023/05/02 02:42:02;;;;;;;10.52;4.20;;;;;;;;;;5087147;28;20039;-67
2023/05/02 02:44:34;;;;;;;11.52;3.78;;;;;;;;;;5105252;28;20035;-66
2023/05/02 02:47:07;;;;;;;8.30;4.10;;;;;;;;;;5112468;28;20049;-67
2023/05/02 02:49:51;;;;;;;12.70;4.70;;;;;;;;;;5088668;28;20050;-67
2023/05/02 02:52:17;;;;;;;10.20;4.28;;;;;;;;;;5112235;28;20100;-66
2023/05/02 02:54:49;;;;;;;8.85;3.70;;;;;;;;;;5103092;28;20043;-67
2023/05/02 02:57:16;;;;;;;13.30;4.30;;;;;;;;;;5075346;28;20055;-67
2023/05/02 02:59:46;;;;;;;14.38;4.57;;;;;;;;;;5101274;28;20039;-67
2023/05/02 03:02:14;;;;;;;12.38;4.32;;;;;;;;;;5110927;28;20052;-67
2023/05/02 03:04:41;;;;;;;19.23;3.47;;;;;;;;;;5104345;28;20043;-67
2023/05/02 03:07:07;;;;;;;8.80;2.70;;;;;;;;;;5112079;28;20048;-66
2023/05/02 03:09:43;;;;;;;9.90;3.38;;;;;;;;;;5110509;28;20096;-66
2023/05/02 03:12:09;;;;;;;15.48;3.65;;;;;;;;;;5094910;28;20542;-67
2023/05/02 03:14:35;;;;;;;14.10;3.72;;;;;;;;;;5097789;28;20055;-66
2023/05/02 03:17:02;;;;;;;15.27;4.57;;;;;;;;;;5111583;28;20040;-67
2023/05/02 03:19:28;;;;;;;17.70;3.70;;;;;;;;;;5092960;28;20035;-67
2023/05/02 03:21:54;;;;;;;18.17;4.22;;;;;;;;;;5103997;28;20046;-67
2023/05/02 03:24:20;;;;;;;16.58;4.22;;;;;;;;;;5112677;28;20039;-66
2023/05/02 03:26:47;;;;;;;21.23;4.38;;;;;;;;;;5107628;28;20048;-66
2023/05/02 03:29:13;;;;;;;16.30;4.30;;;;;;;;;;5108819;28;20044;-66
2023/05/02 03:31:39;;;;;;;14.95;4.53;;;;;;;;;;5102484;28;20197;-66
2023/05/02 03:34:05;;;;;;;20.58;5.95;;;;;;;;;;5112066;28;20110;-66
2023/05/02 03:36:31;;;;;;;17.67;4.40;;;;;;;;;;5101925;28;20294;-66
2023/05/02 03:38:57;;;;;;;16.13;5.07;;;;;;;;;;5089453;28;20118;-65
2023/05/02 03:41:26;;;;;;;24.60;4.93;;;;;;;;;;5106473;27;20143;-66
2023/05/02 03:43:52;;;;;;;22.35;5.13;;;;;;;;;;5108940;28;20401;-66
2023/05/02 03:46:18;;;;;;;23.27;4.75;;;;;;;;;;5108195;28;20077;-65
2023/05/02 03:48:45;;;;;;;19.38;4.60;;;;;;;;;;5110087;28;20400;-65
2023/05/02 03:51:12;;;;;;;18.02;5.20;;;;;;;;;;5108570;28;20066;-65
2023/05/02 03:53:38;;;;;;;17.92;4.47;;;;;;;;;;5109568;28;20114;-65
2023/05/02 03:56:04;;;;;;;17.98;5.32;;;;;;;;;;5103309;28;20553;-65
2023/05/02 03:58:30;;;;;;;26.30;4.75;;;;;;;;;;5112433;28;20046;-65
2023/05/02 04:00:56;;;;;;;21.33;5.07;;;;;;;;;;5109410;28;20044;-65
2023/05/02 04:03:22;;;;;;;15.20;4.13;;;;;;;;;;5108147;28;20408;-65
2023/05/02 04:05:50;;;;;;;19.55;5.20;;;;;;;;;;5105437;28;20122;-65
2023/05/02 04:08:16;;;;;;;20.13;4.95;;;;;;;;;;5102774;28;20104;-65
2023/05/02 04:10:42;;;;;;;21.83;4.95;;;;;;;;;;5104360;28;20034;-65
2023/05/02 04:13:08;;;;;;;15.45;4.93;;;;;;;;;;5109714;28;20039;-65
2023/05/02 04:15:34;;;;;;;19.67;4.68;;;;;;;;;;5109001;28;20057;-65
2023/05/02 04:18:00;;;;;;;20.63;4.40;;;;;;;;;;5107143;28;20400;-65
2023/05/02 04:20:26;;;;;;;20.10;4.88;;;;;;;;;;5111342;28;20035;-66
2023/05/02 04:22:52;;;;;;;13.15;4.15;;;;;;;;;;5103757;28;20400;-65
2023/05/02 04:25:18;;;;;;;11.85;3.10;;;;;;;;;;5111402;28;20050;-65
2023/05/02 04:27:44;;;;;;;16.52;3.38;;;;;;;;;;5100444;28;20039;-65
2023/05/02 04:30:11;;;;;;;13.23;3.80;;;;;;;;;;5111267;28;20074;-65
2023/05/02 04:32:37;;;;;;;16.88;4.07;;;;;;;;;;5109739;28;20044;-65
2023/05/02 04:35:03;;;;;;;17.85;4.18;;;;;;;;;;5094248;28;20043;-65
2023/05/02 04:37:29;;;;;;;13.50;3.80;;;;;;;;;;5092492;28;20089;-66
2023/05/02 04:39:55;;;;;;;15.52;3.58;;;;;;;;;;5097107;28;20031;-65
2023/05/02 04:42:21;;;;;;;19.58;3.85;;;;;;;;;;5092994;28;20451;-65
2023/05/02 04:44:48;;;;;;;13.65;3.60;;;;;;;;;;5109589;28;20036;-65
2023/05/02 04:47:14;;;;;;;15.35;3.47;;;;;;;;;;5113540;28;20039;-65
2023/05/02 04:49:41;;;;;;;13.25;3.25;;;;;;;;;;5103001;28;20032;-66
2023/05/02 04:52:08;;;;;;;12.65;3.17;;;;;;;;;;5112322;28;20036;-65
2023/05/02 04:54:34;;;;;;;10.02;2.92;;;;;;;;;;5103513;27;20067;-65
2023/05/02 04:57:02;;;;;;;12.75;2.72;;;;;;;;;;5108384;28;20065;-66
2023/05/02 04:59:28;;;;;;;14.50;3.20;;;;;;;;;;5109187;28;20039;-65
2023/05/02 05:01:55;;;;;;;12.60;2.70;;;;;;;;;;5113606;28;20565;-66
2023/05/02 05:04:20;;;;;;;8.77;2.45;;;;;;;;;;5116111;28;20397;-65
2023/05/02 05:06:48;;;;;;;12.95;3.30;;;;;;;;;;5112171;27;20047;-66
2023/05/02 05:09:14;;;;;;;8.88;2.47;;;;;;;;;;5111853;28;20498;-66
2023/05/02 05:11:41;;;;;;;10.07;2.42;;;;;;;;;;5113461;28;20405;-65
2023/05/02 05:14:07;;;;;;;9.07;2.50;;;;;;;;;;5099998;28;20047;-65
2023/05/02 05:16:33;;;;;;;11.50;2.40;;;;;;;;;;5112416;28;20065;-65
2023/05/02 05:18:59;;;;;;;11.82;2.80;;;;;;;;;;5112013;28;20511;-65
2023/05/02 05:21:26;;;;;;;10.50;2.53;;;;;;;;;;5114343;28;20246;-65
2023/05/02 05:23:52;;;;;;;13.02;2.42;;;;;;;;;;5111359;28;20052;-65
2023/05/02 05:26:18;;;;;;;9.60;2.70;;;;;;;;;;5093715;28;20126;-65
2023/05/02 05:28:44;;;;;;;11.43;2.83;;;;;;;;;;5112272;28;20039;-65
2023/05/02 05:31:11;;;;;;;9.85;2.42;;;;;;;;;;5112349;28;20069;-65
2023/05/02 05:33:38;;;;;;;8.52;3.10;;;;;;;;;;5108527;28;20040;-66
2023/05/02 05:36:05;;;;;;;9.23;3.05;;;;;;;;;;5112713;28;20048;-65
2023/05/02 05:38:31;;;;;;;9.25;3.03;;;;;;;;;;5107256;28;20057;-67
2023/05/02 05:40:57;;;;;;;10.57;2.42;;;;;;;;;;5113806;28;20063;-66
2023/05/02 05:43:23;;;;;;;5.07;2.00;;;;;;;;;;5113653;28;20082;-66
2023/05/02 05:45:51;;;;;;;9.10;2.45;;;;;;;;;;5109974;28;20093;-67
2023/05/02 05:48:17;;;;;;;6.20;2.00;;;;;;;;;;5108037;28;20399;-66
2023/05/02 05:50:43;;;;;;;3.10;1.58;;;;;;;;;;5093640;28;20130;-67
2023/05/02 05:53:09;;;;;;;10.55;1.92;;;;;;;;;;5112801;28;20485;-66
2023/05/02 05:55:36;;;;;;;5.20;1.90;;;;;;;;;;5104508;27;20459;-67
2023/05/02 05:58:03;;;;;;;7.00;2.10;;;;;;;;;;5113352;28;20049;-64
2023/05/02 06:00:29;;;;;;;4.85;2.20;;;;;;;;;;5107656;27;20043;-65
2023/05/02 06:02:55;;;;;;;8.20;2.40;;;;;;;;;;5113313;28;20050;-66
2023/05/02 06:05:21;;;;;;;8.32;2.63;;;;;;;;;;5111727;28;20035;-66
2023/05/02 06:07:46;;;;;;;6.50;2.38;;;;;;;;;;5113523;27;20047;-66
2023/05/02 06:10:12;;;;;;;10.10;2.33;;;;;;;;;;5104068;28;20189;-66
2023/05/02 06:12:38;;;;;;;10.38;2.50;;;;;;;;;;5106958;28;20051;-66
2023/05/02 06:15:05;;;;;;;12.85;2.92;;;;;;;;;;5105270;27;20087;-66
2023/05/02 06:17:31;;;;;;;12.25;2.50;;;;;;;;;;5102282;28;20065;-65
2023/05/02 06:19:57;;;;;;;7.30;2.70;;;;;;;;;;5107419;28;20070;-66
2023/05/02 06:22:23;;;;;;;10.52;2.80;;;;;;;;;;5110998;28;20512;-66
2023/05/02 06:24:48;;;;;;;13.50;2.70;;;;;;;;;;5088085;28;20043;-66
2023/05/02 06:27:15;;;;;;;13.13;2.42;;;;;;;;;;5110973;28;20067;-66
2023/05/02 06:29:41;;;;;;;10.45;2.30;;;;;;;;;;5112680;28;20046;-66
2023/05/02 06:32:07;;;;;;;13.98;2.72;;;;;;;;;;5095235;28;20036;-66
2023/05/02 06:34:33;;;;;;;7.43;2.78;;;;;;;;;;5109546;27;20116;-66
2023/05/02 06:36:59;;;;;;;10.10;2.90;;;;;;;;;;5113373;28;20035;-66
2023/05/02 06:39:25;;;;;;;8.73;2.83;;;;;;;;;;5110899;28;20023;-66
2023/05/02 06:41:51;;;;;;;10.25;2.65;;;;;;;;;;5103049;28;20070;-66
2023/05/02 06:44:17;;;;;;;8.43;2.72;;;;;;;;;;5107055;28;20096;-66
2023/05/02 06:46:43;;;;;;;10.10;2.60;;;;;;;;;;5112772;28;20047;-66
2023/05/02 06:49:09;;;;;;;13.18;2.80;;;;;;;;;;5109633;28;20046;-66
2023/05/02 06:51:35;;;;;;;11.32;2.85;;;;;;;;;;5111051;28;20044;-66
2023/05/02 06:54:01;;;;;;;10.38;2.92;;;;;;;;;;5100267;28;20115;-66
2023/05/02 06:56:27;;;;;;;5.93;2.40;;;;;;;;;;5100130;28;20032;-66
2023/05/02 06:58:53;;;;;;;11.02;2.67;;;;;;;;;;5113048;28;20040;-66
2023/05/02 07:01:19;;;;;;;11.18;2.78;;;;;;;;;;5103681;28;20473;-66
2023/05/02 07:03:46;;;;;;;9.20;2.67;;;;;;;;;;5114012;27;20039;-66
2023/05/02 07:06:12;;;;;;;12.38;2.88;;;;;;;;;;5133766;27;20046;-66
2023/05/02 07:08:38;;;;;;;8.27;2.78;;;;;;;;;;5133278;27;20122;-66
2023/05/02 07:11:04;;;;;;;10.38;3.20;;;;;;;;;;5133795;27;20448;-66
2023/05/02 07:13:30;;;;;;;9.63;2.80;;;;;;;;;;5125368;27;20593;-66
2023/05/02 07:15:56;;;;;;;11.30;3.00;;;;;;;;;;5112115;28;20114;-66
2023/05/02 07:18:22;;;;;;;13.23;3.30;;;;;;;;;;5103110;28;20374;-66
2023/05/02 07:20:48;;;;;;;12.55;2.90;;;;;;;;;;5108786;28;20048;-66
2023/05/02 07:23:14;;;;;;;9.35;2.90;;;;;;;;;;5110589;28;20047;-66
2023/05/02 07:25:40;;;;;;;11.77;3.13;;;;;;;;;;5107969;27;20122;-67
2023/05/02 07:28:06;;;;;;;8.50;2.95;;;;;;;;;;5105665;27;20043;-66
2023/05/02 07:30:32;;;;;;;11.52;3.22;;;;;;;;;;5103468;22;20474;-66
2023/05/02 07:32:58;;;;;;;14.25;3.63;;;;;;;;;;5069870;28;20153;-66
2023/05/02 07:35:24;;;;;;;16.08;3.53;;;;;;;;;;5073071;28;20152;-67
2023/05/02 07:37:50;;;;;;;12.55;2.97;;;;;;;;;;5065561;28;20052;-66
2023/05/02 07:40:17;;;;;;;10.57;2.88;;;;;;;;;;5081398;28;20043;-67
2023/05/02 07:42:43;;;;;;;9.65;3.15;;;;;;;;;;5084333;28;20493;-67
2023/05/02 07:45:09;;;;;;;13.90;3.78;;;;;;;;;;5086565;28;20042;-66
2023/05/02 07:47:36;;;;;;;12.48;3.15;;;;;;;;;;5085795;28;20042;-67
2023/05/02 07:50:05;;;;;;;11.93;3.47;;;;;;;;;;5082558;28;20046;-67
2023/05/02 07:52:31;;;;;;;8.82;3.08;;;;;;;;;;5090619;28;20455;-66
2023/05/02 07:54:57;;;;;;;10.90;3.22;;;;;;;;;;5087003;28;20386;-66
2023/05/02 07:57:23;;;;;;;8.63;2.75;;;;;;;;;;5088156;28;20038;-67
2023/05/02 07:59:49;;;;;;;11.88;3.15;;;;;;;;;;5088605;28;20097;-66
2023/05/02 08:02:18;;;;;;;15.52;3.03;;;;;;;;;;5086497;28;20051;-67
2023/05/02 08:04:44;;;;;;;17.48;3.50;;;;;;;;;;5085611;28;20040;-66
2023/05/02 08:07:10;;;;;;;9.45;3.03;;;;;;;;;;5088979;28;20056;-67
2023/05/02 08:09:36;;;;;;;8.57;2.72;;;;;;;;;;5084200;28;20044;-66
2023/05/02 08:12:02;;;;;;;11.30;3.20;;;;;;;;;;5080028;28;20035;-67
2023/05/02 08:14:29;;;;;;;10.10;2.90;;;;;;;;;;5081827;28;20036;-67
2023/05/02 08:16:54;;;;;;;7.82;3.30;;;;;;;;;;5086898;28;20135;-67
2023/05/02 08:19:20;;;;;;;8.65;2.95;;;;;;;;;;5087678;28;20529;-67
2023/05/02 08:21:46;;;;;;;10.52;2.97;;;;;;;;;;5080060;28;20043;-66
2023/05/02 08:24:12;;;;;;;8.15;2.72;;;;;;;;;;5087792;28;20036;-67
2023/05/02 08:26:38;;;;;;;9.15;3.13;;;;;;;;;;5085977;28;20134;-67
2023/05/02 08:29:04;;;;;;;12.68;3.53;;;;;;;;;;5083293;28;20036;-67
2023/05/02 08:31:31;;;;;;;6.60;2.65;;;;;;;;;;5083707;28;20486;-67
2023/05/02 08:33:57;;;;;;;7.85;2.63;;;;;;;;;;5088926;28;20111;-66
2023/05/02 08:36:25;;;;;;;6.93;2.20;;;;;;;;;;5088836;28;20119;-66
2023/05/02 08:38:50;;;;;;;6.95;2.28;;;;;;;;;;5081265;28;20040;-66
2023/05/02 08:41:17;;;;;;;9.20;3.00;;;;;;;;;;5091598;28;20439;-67
2023/05/02 08:43:44;;;;;;;5.43;2.65;;;;;;;;;;5079698;28;20032;-66
2023/05/02 08:46:11;;;;;;;7.22;2.28;;;;;;;;;;5080028;28;20045;-66
2023/05/02 08:48:38;;;;;;;11.57;3.30;;;;;;;;;;5088072;28;20044;-67
2023/05/02 08:51:06;;;;;;;9.25;3.15;;;;;;;;;;5082278;28;20039;-66
2023/05/02 08:53:34;;;;;;;11.30;3.03;;;;;;;;;;5086587;28;20118;-67
2023/05/02 08:56:00;;;;;;;14.85;3.10;;;;;;;;;;5087839;28;20071;-66
2023/05/02 08:58:26;;;;;;;10.38;2.67;;;;;;;;;;5087189;28;20038;-66
2023/05/02 09:00:53;;;;;;;11.73;2.75;;;;;;;;;;5082469;28;20486;-67
2023/05/02 09:03:27;;;;;;;7.65;2.70;;;;;;;;;;5084097;28;20039;-66
2023/05/02 09:05:57;;;;;;;9.98;2.80;;;;;;;;;;5089998;28;20130;-67
2023/05/02 09:08:24;;;;;;;9.27;3.30;;;;;;;;;;5085490;28;20040;-66
2023/05/02 09:10:50;;;;;;;7.20;2.53;;;;;;;;;;5081373;28;20036;-66
2023/05/02 09:13:35;;;;;;;11.52;2.95;;;;;;;;;;5086425;28;20093;-67
2023/05/02 09:16:01;;;;;;;8.77;2.72;;;;;;;;;;5084724;28;20054;-66
2023/05/02 09:18:28;;;;;;;9.52;2.72;;;;;;;;;;5089395;28;20032;-64
2023/05/02 09:24:21;;;;;;;6.10;2.50;;;;;;;;;;5063576;28;20430;-64
2023/05/02 09:26:57;;;;;;;5.20;2.20;;;;;;;;;;5091094;28;20039;-64
2023/05/02 09:29:24;;;;;;;9.02;2.15;;;;;;;;;;5086810;28;20036;-64
2023/05/02 09:31:50;;;;;;;8.65;2.17;;;;;;;;;;5092883;28;20048;-64
2023/05/02 09:34:16;;;;;;;9.32;2.60;;;;;;;;;;5095029;28;20078;-64
2023/05/02 09:36:43;;;;;;;5.13;1.90;;;;;;;;;;5093435;28;20063;-64
2023/05/02 09:39:10;;;;;;;9.27;2.35;;;;;;;;;;5093109;28;20040;-64
2023/05/02 09:41:40;;;;;;;6.43;2.28;;;;;;;;;;5074023;28;20044;-64
2023/05/02 09:44:09;;;;;;;11.93;2.90;;;;;;;;;;5088605;28;20040;-64
2023/05/02 09:46:41;;;;;;;7.70;3.03;;;;;;;;;;5094378;28;20490;-64
2023/05/02 09:49:08;;;;;;;12.38;3.08;;;;;;;;;;5092276;28;20047;-65
2023/05/02 09:51:34;;;;;;;7.00;2.50;;;;;;;;;;5094380;28;20040;-65
2023/05/02 09:54:00;;;;;;;8.35;3.00;;;;;;;;;;5094134;28;20036;-65
2023/05/02 09:56:27;;;;;;;7.53;2.60;;;;;;;;;;5093940;28;20115;-64
2023/05/02 09:59:12;;;;;;;7.78;2.60;;;;;;;;;;5093620;28;20089;-64
2023/05/02 10:01:40;;;;;;;10.95;3.08;;;;;;;;;;5093413;28;20071;-65
2023/05/02 10:04:07;;;;;;;11.18;2.70;;;;;;;;;;5093352;28;20040;-64
2023/05/02 10:06:32;;;;;;;6.20;2.17;;;;;;;;;;5094074;28;20044;-64
2023/05/02 10:08:59;;;;;;;6.82;2.72;;;;;;;;;;5093291;28;20108;-65
2023/05/02 10:11:25;;;;;;;4.35;2.15;;;;;;;;;;5092157;28;20485;-64
2023/05/02 10:13:51;;;;;;;6.70;2.30;;;;;;;;;;5093985;28;20072;-64
2023/05/02 10:16:22;;;;;;;10.20;2.22;;;;;;;;;;5094016;28;20108;-64
2023/05/02 10:18:55;;;;;;;6.97;1.83;;;;;;;;;;5091827;28;20040;-65
2023/05/02 10:21:28;;;;;;;4.82;2.30;;;;;;;;;;5092955;28;20036;-64
2023/05/02 10:23:54;;;;;;;5.57;2.03;;;;;;;;;;5093418;28;20043;-65
2023/05/02 10:26:21;;;;;;;5.10;2.10;;;;;;;;;;5090771;28;20036;-64
2023/05/02 10:28:48;;;;;;;5.32;2.03;;;;;;;;;;5090680;28;20093;-65
2023/05/02 10:31:14;;;;;;;6.72;2.28;;;;;;;;;;5088648;28;20075;-65
2023/05/02 10:33:40;;;;;;;5.63;1.92;;;;;;;;;;5093324;28;20044;-65
2023/05/02 10:36:08;;;;;;;6.80;1.90;;;;;;;;;;5093302;28;20036;-65
2023/05/02 10:38:35;;;;;;;5.60;2.08;;;;;;;;;;5092898;28;20067;-65
2023/05/02 10:41:02;;;;;;;3.38;1.70;;;;;;;;;;5092997;28;20092;-64
2023/05/02 10:43:32;;;;;;;9.05;3.13;;;;;;;;;;5091803;28;20050;-65
2023/05/02 10:45:59;;;;;;;3.78;1.75;;;;;;;;;;5093163;28;20036;-64
2023/05/02 10:48:26;;;;;;;7.25;1.92;;;;;;;;;;5092866;28;20063;-64
2023/05/02 10:50:55;;;;;;;5.30;1.98;;;;;;;;;;5092532;28;20052;-64
2023/05/02 10:53:22;;;;;;;9.27;1.83;;;;;;;;;;5092924;28;20550;-65
2023/05/02 10:56:06;;;;;;;5.28;2.10;;;;;;;;;;5093250;28;20040;-65
2023/05/02 10:58:32;;;;;;;6.20;2.13;;;;;;;;;;5088909;28;20051;-64
2023/05/02 11:01:17;;;;;;;5.30;1.98;;;;;;;;;;5092354;28;20039;-65
2023/05/02 11:03:56;;;;;;;9.80;2.10;;;;;;;;;;5093028;28;20126;-65
2023/05/02 11:06:22;;;;;;;5.10;1.92;;;;;;;;;;5092878;28;20397;-64
2023/05/02 11:08:48;;;;;;;6.82;1.75;;;;;;;;;;5091479;28;20493;-64
2023/05/02 11:11:33;;;;;;;3.20;1.80;;;;;;;;;;5083007;28;20044;-65
2023/05/02 11:13:59;;;;;;;4.18;1.65;;;;;;;;;;5083465;28;20051;-64
2023/05/02 11:16:25;;;;;;;5.45;1.48;;;;;;;;;;5092641;28;20035;-65
2023/05/02 11:18:58;;;;;;;4.03;2.00;;;;;;;;;;5092089;28;20036;-64
2023/05/02 11:21:27;;;;;;;4.35;1.60;;;;;;;;;;5092289;28;20044;-64
2023/05/02 11:24:13;;;;;;;3.00;1.30;;;;;;;;;;5092700;28;20040;-64
2023/05/02 11:26:39;;;;;;;4.30;1.50;;;;;;;;;;5091796;28;20040;-65
2023/05/02 11:29:05;;;;;;;9.85;1.70;;;;;;;;;;5091005;28;20093;-65
2023/05/02 11:31:31;;;;;;;8.65;1.92;;;;;;;;;;5092308;28;20036;-65
2023/05/02 11:33:58;;;;;;;5.57;1.90;;;;;;;;;;5092306;28;20390;-64
2023/05/02 11:36:28;;;;;;;5.38;1.65;;;;;;;;;;5092306;28;20055;-65
2023/05/02 11:38:54;;;;;;;4.17;1.10;;;;;;;;;;5091750;28;20050;-65
2023/05/02 11:41:20;;;;;;;4.30;1.33;;;;;;;;;;5091450;28;20071;-65
2023/05/02 11:43:46;;;;;;;6.63;1.40;;;;;;;;;;5091562;28;20040;-65
2023/05/02 11:46:12;;;;;;;3.83;1.52;;;;;;;;;;5092008;28;20415;-65
2023/05/02 11:48:38;;;;;;;4.22;1.40;;;;;;;;;;5091306;28;20051;-65
2023/05/02 11:51:05;;;;;;;3.78;1.40;;;;;;;;;;5091472;28;20058;-64
2023/05/02 11:53:32;;;;;;;3.95;1.52;;;;;;;;;;5089165;28;20040;-65
2023/05/02 11:55:59;;;;;;;3.85;1.23;;;;;;;;;;5085387;28;20504;-65
2023/05/02 11:58:28;;;;;;;5.63;1.63;;;;;;;;;;5080668;28;20056;-65
2023/05/02 12:00:55;;;;;;;5.15;1.50;;;;;;;;;;5085317;28;20110;-65
2023/05/02 12:03:28;;;;;;;2.58;1.02;;;;;;;;;;5083864;28;20048;-64
2023/05/02 12:05:54;;;;;;;6.20;1.48;;;;;;;;;;5086976;28;20393;-64
2023/05/02 12:08:25;;;;;;;4.50;1.17;;;;;;;;;;5088732;28;20040;-65
2023/05/02 12:10:51;;;;;;;1.70;1.10;;;;;;;;;;5085505;28;20036;-65
2023/05/02 12:13:18;;;;;;;2.58;1.20;;;;;;;;;;5083881;28;20037;-65
2023/05/02 12:15:45;;;;;;;4.05;1.10;;;;;;;;;;5085668;28;20036;-65
2023/05/02 12:18:11;;;;;;;3.67;1.48;;;;;;;;;;5092690;28;21415;-65
2023/05/02 12:20:38;;;;;;;2.65;1.10;;;;;;;;;;5082669;28;20041;-65
2023/05/02 12:23:05;;;;;;;3.78;1.48;;;;;;;;;;5083449;28;20807;-65
2023/05/02 12:25:32;;;;;;;2.83;1.33;;;;;;;;;;5084929;28;20575;-65
2023/05/02 12:28:02;;;;;;;5.72;1.77;;;;;;;;;;5082160;28;20102;-65
2023/05/02 12:30:28;;;;;;;3.92;1.48;;;;;;;;;;5083746;28;20110;-65
2023/05/02 12:32:58;;;;;;;3.55;1.20;;;;;;;;;;5087075;28;20051;-64
2023/05/02 12:35:24;;;;;;;4.78;1.10;;;;;;;;;;5089797;28;20047;-65
2023/05/02 12:37:52;;;;;;;3.75;1.10;;;;;;;;;;5074739;28;20203;-64
2023/05/02 12:40:18;;;;;;;2.63;1.10;;;;;;;;;;5085345;28;20041;-65
2023/05/02 12:42:57;;;;;;;2.28;1.17;;;;;;;;;;5089312;28;20118;-65
2023/05/02 12:45:23;;;;;;;3.78;1.30;;;;;;;;;;5088830;28;20093;-65
2023/05/02 12:47:49;;;;;;;4.72;1.48;;;;;;;;;;5082075;28;20044;-65
2023/05/02 12:50:15;;;;;;;2.83;1.50;;;;;;;;;;5087976;28;20451;-64
2023/05/02 12:52:45;;;;;;;3.45;1.45;;;;;;;;;;5084202;28;20040;-65
2023/05/02 12:55:15;;;;;;;4.30;1.50;;;;;;;;;;5087322;28;20055;-64
2023/05/02 12:57:41;;;;;;;4.28;1.23;;;;;;;;;;5086230;28;20044;-65
2023/05/02 13:00:07;;;;;;;5.30;1.45;;;;;;;;;;5078309;28;20032;-65
2023/05/02 13:02:33;;;;;;;4.82;2.03;;;;;;;;;;5080125;28;20051;-65
2023/05/02 13:04:59;;;;;;;6.20;1.88;;;;;;;;;;5084995;28;20028;-65
2023/05/02 13:07:25;;;;;;;5.70;1.83;;;;;;;;;;5093145;28;20505;-65
2023/05/02 13:09:51;;;;;;;4.43;1.50;;;;;;;;;;5083390;28;20074;-65
2023/05/02 13:12:17;;;;;;;4.70;1.88;;;;;;;;;;5092156;28;20433;-65
2023/05/02 13:14:43;;;;;;;3.92;1.52;;;;;;;;;;5092497;28;20978;-65
2023/05/02 13:17:10;;;;;;;5.28;1.70;;;;;;;;;;5090998;28;20036;-65
2023/05/02 13:19:36;;;;;;;8.23;1.95;;;;;;;;;;5090892;28;20047;-65
2023/05/02 13:22:31;;;;;;;6.88;2.17;;;;;;;;;;5086693;28;20071;-65
2023/05/02 13:24:57;;;;;;;4.80;1.45;;;;;;;;;;5073937;28;20059;-65
2023/05/02 13:27:23;;;;;;;2.30;1.58;;;;;;;;;;5088482;28;20036;-65
2023/05/02 13:29:49;;;;;;;4.80;1.83;;;;;;;;;;5118191;22;20039;-63
2023/05/02 13:32:15;;;;;;;3.95;1.30;;;;;;;;;;5133887;27;20399;-63
2023/05/02 13:34:41;;;;;;;5.10;2.08;;;;;;;;;;5131337;27;20118;-63
2023/05/02 13:37:08;;;;;;;3.28;1.63;;;;;;;;;;5139694;27;20065;-64
2023/05/02 13:39:34;;;;;;;7.65;1.80;;;;;;;;;;5138225;27;20071;-63
2023/05/02 13:42:03;;;;;;;6.68;1.65;;;;;;;;;;5155694;27;20125;-63
2023/05/02 13:44:30;;;;;;;5.75;1.98;;;;;;;;;;5151139;27;20042;-63
2023/05/02 13:46:56;;;;;;;5.07;1.80;;;;;;;;;;5144602;27;20053;-63
2023/05/02 13:49:22;;;;;;;4.60;1.77;;;;;;;;;;5146711;27;20057;-63
2023/05/02 13:51:48;;;;;;;5.82;1.70;;;;;;;;;;5151577;27;20034;-63
2023/05/02 13:54:14;;;;;;;3.53;1.42;;;;;;;;;;5149937;27;20041;-63
2023/05/02 13:56:41;;;;;;;4.55;1.20;;;;;;;;;;5155718;27;20050;-63
2023/05/02 13:59:07;;;;;;;4.18;1.95;;;;;;;;;;5155854;27;20046;-63
2023/05/02 14:01:33;;;;;;;2.33;1.20;;;;;;;;;;5144502;27;20035;-63
2023/05/02 14:03:59;;;;;;;3.83;1.50;;;;;;;;;;5141320;27;20393;-63
2023/05/02 14:06:25;;;;;;;5.32;1.30;;;;;;;;;;5149272;27;20027;-63
2023/05/02 14:08:51;;;;;;;5.15;1.50;;;;;;;;;;5150012;27;20488;-63
2023/05/02 14:11:17;;;;;;;4.47;1.67;;;;;;;;;;5142530;27;20043;-63
2023/05/02 14:13:43;;;;;;;6.63;1.80;;;;;;;;;;5136853;27;20056;-63
2023/05/02 14:16:10;;;;;;;4.43;1.80;;;;;;;;;;5145620;27;20039;-63
2023/05/02 14:18:36;;;;;;;3.88;1.60;;;;;;;;;;5149221;27;20043;-63
2023/05/02 14:21:03;;;;;;;3.22;1.20;;;;;;;;;;5149421;27;20377;-63
2023/05/02 14:23:28;;;;;;;3.35;1.30;;;;;;;;;;5144674;27;20503;-63
2023/05/02 14:25:55;;;;;;;2.95;1.30;;;;;;;;;;5133390;27;20039;-63
2023/05/02 14:28:21;;;;;;;3.97;1.60;;;;;;;;;;5147395;27;20043;-63
2023/05/02 14:30:50;;;;;;;3.65;1.40;;;;;;;;;;5142038;27;20054;-63
2023/05/02 14:33:16;;;;;;;7.25;1.83;;;;;;;;;;5152352;27;20042;-63
2023/05/02 14:35:43;;;;;;;2.60;1.60;;;;;;;;;;5149474;27;20072;-63
2023/05/02 14:38:09;;;;;;;2.45;1.35;;;;;;;;;;5144683;27;20038;-63
2023/05/02 14:40:35;;;;;;;4.38;1.40;;;;;;;;;;5152569;27;20376;-63